Time;durP1;ratioP1;P1;durP2;ratioP2;P2;SDS_P1;SDS_P2;PMS_P1;PMS_P2;Temp;Humidity;BMP_temperature;BMP_pressure;BME280_temperature;BME280_humidity;BME280_pressure;Samples;Min_cycle;Max_cycle;Signal;HPM_P1;HPM_P2
2022/06/05 00:02:29;;;;;;;;;32.00;28.00;;;;;-142.59;100.00;56100.38;5074047;28;50732;-64
2022/06/05 00:05:02;;;;;;;;;28.50;26.25;;;;;-142.59;100.00;56100.38;5075177;28;49727;-63
2022/06/05 00:07:59;;;;;;;;;26.25;23.25;;;;;-142.59;100.00;56100.38;5074877;28;49830;-66
2022/06/05 00:10:37;;;;;;;;;31.25;23.25;;;;;-142.59;100.00;56100.38;5063870;28;49867;-64
2022/06/05 00:13:21;;;;;;;;;18.00;15.00;;;;;-142.59;100.00;56100.38;5073955;28;49734;-64
2022/06/05 00:15:47;;;;;;;;;21.50;18.00;;;;;-142.59;100.00;56100.38;5069500;28;49645;-69
2022/06/05 00:18:13;;;;;;;;;17.00;16.00;;;;;-142.59;100.00;56100.38;5074531;28;49725;-68
2022/06/05 00:20:43;;;;;;;;;24.00;20.75;;;;;-142.59;100.00;56100.38;5074813;27;49828;-67
2022/06/05 00:23:09;;;;;;;;;19.00;16.75;;;;;-142.59;100.00;56100.38;5073633;27;49878;-67
2022/06/05 00:25:53;;;;;;;;;16.00;16.00;;;;;-142.59;100.00;56100.38;5074638;28;49782;-65
2022/06/05 00:28:37;;;;;;;;;19.75;19.75;;;;;-142.59;100.00;56100.38;5074424;28;50158;-68
2022/06/05 00:31:18;;;;;;;;;14.00;14.00;;;;;-142.59;100.00;56100.38;5075024;28;49914;-67
2022/06/05 00:33:43;;;;;;;;;17.00;17.00;;;;;-142.59;100.00;56100.38;5074114;28;50714;-67
2022/06/05 00:36:20;;;;;;;;;16.25;16.25;;;;;-142.59;100.00;56100.38;5067296;27;49662;-69
2022/06/05 00:38:56;;;;;;;;;17.50;16.50;;;;;-142.59;100.00;56100.38;5074206;28;49704;-66
2022/06/05 00:41:40;;;;;;;;;15.75;15.75;;;;;-142.59;100.00;56100.38;5074600;28;49810;-67
2022/06/05 00:44:09;;;;;;;;;16.50;14.50;;;;;-142.59;100.00;56100.38;5074205;28;51304;-65
2022/06/05 00:46:38;;;;;;;;;14.00;13.75;;;;;-142.59;100.00;56100.38;5074286;28;49876;-64
2022/06/05 00:49:06;;;;;;;;;16.25;12.75;;;;;-142.59;100.00;56100.38;5074321;28;49845;-64
2022/06/05 00:51:31;;;;;;;;;18.25;15.75;;;;;-142.59;100.00;56100.38;5074257;28;50002;-64
2022/06/05 00:53:56;;;;;;;;;15.25;15.25;;;;;-142.59;100.00;56100.38;5074228;28;50362;-64
2022/06/05 00:56:22;;;;;;;;;21.25;17.75;;;;;-142.59;100.00;56100.38;5073293;28;49502;-65
2022/06/05 00:58:47;;;;;;;;;14.75;13.50;;;;;-142.59;100.00;56100.38;5074299;27;49931;-64
2022/06/05 01:01:13;;;;;;;;;20.75;17.25;;;;;-142.59;100.00;56100.38;5073737;28;49759;-64
2022/06/05 01:03:38;;;;;;;;;18.00;17.25;;;;;-142.59;100.00;56100.38;5074027;28;49876;-65
2022/06/05 01:06:04;;;;;;;;;21.25;18.50;;;;;-142.59;100.00;56100.38;5074096;28;49697;-67
2022/06/05 01:08:29;;;;;;;;;15.75;15.00;;;;;-142.59;100.00;56100.38;5073769;28;49869;-67
2022/06/05 01:11:37;;;;;;;;;14.25;14.25;;;;;-142.59;100.00;56100.38;5074337;28;49830;-65
2022/06/05 01:14:20;;;;;;;;;14.25;14.00;;;;;-142.59;100.00;56100.38;5063450;28;50804;-64
2022/06/05 01:17:00;;;;;;;;;13.25;11.25;;;;;-142.59;100.00;56100.38;5073415;27;49933;-65
2022/06/05 01:19:34;;;;;;;;;18.00;18.00;;;;;-142.59;100.00;56100.38;5073632;27;49886;-64
2022/06/05 01:22:08;;;;;;;;;16.25;16.25;;;;;-142.59;100.00;56100.38;5073413;28;49654;-64
2022/06/05 01:24:52;;;;;;;;;14.75;14.75;;;;;-142.59;100.00;56100.38;5073575;27;50352;-64
2022/06/05 01:27:22;;;;;;;;;17.50;14.75;;;;;-142.59;100.00;56100.38;5055454;28;49698;-64
2022/06/05 01:30:03;;;;;;;;;15.25;15.25;;;;;-142.59;100.00;56100.38;5073475;27;49882;-65
2022/06/05 01:32:43;;;;;;;;;14.75;14.75;;;;;-142.59;100.00;56100.38;5073555;28;49711;-64
2022/06/05 01:35:20;;;;;;;;;19.00;15.75;;;;;-142.59;100.00;56100.38;5073600;27;49838;-63
2022/06/05 01:37:56;;;;;;;;;14.25;13.25;;;;;-142.59;100.00;56100.38;5071884;28;49632;-64
2022/06/05 01:40:30;;;;;;;;;14.50;14.50;;;;;-142.59;100.00;56100.38;5073612;28;49899;-64
2022/06/05 01:43:00;;;;;;;;;15.25;15.25;;;;;-142.59;100.00;56100.38;5073552;28;49993;-68
2022/06/05 01:45:38;;;;;;;;;17.00;14.50;;;;;-142.59;100.00;56100.38;5072878;27;49794;-63
2022/06/05 01:48:07;;;;;;;;;15.50;15.50;;;;;-142.59;100.00;56100.38;5073503;28;49727;-63
2022/06/05 01:50:48;;;;;;;;;15.75;15.75;;;;;-142.59;100.00;56100.38;5073047;28;49879;-64
2022/06/05 01:53:31;;;;;;;;;16.25;15.25;;;;;-142.59;100.00;56100.38;5073274;27;49743;-69
2022/06/05 01:56:02;;;;;;;;;13.25;13.25;;;;;-142.59;100.00;56100.38;5073478;27;50635;-68
2022/06/05 01:58:51;;;;;;;;;13.25;10.50;;;;;-142.59;100.00;56100.38;5073077;28;49695;-64
2022/06/05 02:01:21;;;;;;;;;16.50;15.00;;;;;-142.59;100.00;56100.38;5072685;28;49731;-64
2022/06/05 02:03:53;;;;;;;;;14.00;12.25;;;;;-142.59;100.00;56100.38;5073366;27;49835;-64
2022/06/05 02:06:25;;;;;;;;;13.00;12.00;;;;;-142.59;100.00;56100.38;5053229;28;51028;-65
2022/06/05 02:09:06;;;;;;;;;13.50;11.50;;;;;-142.59;100.00;56100.38;5073348;28;49620;-64
2022/06/05 02:11:33;;;;;;;;;13.25;13.25;;;;;-142.59;100.00;56100.38;5072748;28;49881;-66
2022/06/05 02:14:03;;;;;;;;;11.00;9.50;;;;;-142.59;100.00;56100.38;5072697;28;50324;-66
2022/06/05 02:16:31;;;;;;;;;16.25;14.00;;;;;-142.59;100.00;56100.38;5067080;27;49680;-66
2022/06/05 02:19:00;;;;;;;;;13.00;13.00;;;;;-142.59;100.00;56100.38;5072637;27;49778;-67
2022/06/05 02:21:26;;;;;;;;;14.25;12.00;;;;;-142.59;100.00;56100.38;5072513;28;49767;-64
2022/06/05 02:23:52;;;;;;;;;13.00;12.50;;;;;-142.59;100.00;56100.38;5072487;28;49747;-67
2022/06/05 02:26:17;;;;;;;;;14.00;14.00;;;;;-142.59;100.00;56100.38;5072493;27;49763;-65
2022/06/05 02:28:42;;;;;;;;;15.00;13.50;;;;;-142.59;100.00;56100.38;5072959;27;49842;-63
2022/06/05 02:31:30;;;;;;;;;10.75;10.00;;;;;-142.59;100.00;56100.38;5072901;28;49729;-67
2022/06/05 02:34:42;;;;;;;;;17.00;15.00;;;;;-142.59;100.00;56100.38;5072262;28;49642;-67
2022/06/05 02:37:20;;;;;;;;;12.75;12.00;;;;;-142.59;100.00;56100.38;5040239;27;50532;-63
2022/06/05 02:40:11;;;;;;;;;14.00;12.25;;;;;-142.59;100.00;56100.38;5072718;28;49795;-63
2022/06/05 02:43:10;;;;;;;;;13.50;12.50;;;;;-142.59;100.00;56100.38;5020079;28;49567;-64
2022/06/05 02:46:00;;;;;;;;;13.50;12.00;;;;;-142.59;100.00;56100.38;5069928;28;49947;-63
2022/06/05 02:48:34;;;;;;;;;16.25;15.00;;;;;-142.59;100.00;56100.38;5072493;28;51249;-64
2022/06/05 02:51:22;;;;;;;;;15.75;14.50;;;;;-142.59;100.00;56100.38;5071837;28;49675;-68
2022/06/05 02:53:50;;;;;;;;;15.00;15.00;;;;;-142.59;100.00;56100.38;5072260;28;49742;-68
2022/06/05 02:56:16;;;;;;;;;13.00;13.00;;;;;-142.59;100.00;56100.38;5072504;28;49880;-68
2022/06/05 02:58:42;;;;;;;;;13.00;13.00;;;;;-142.59;100.00;56100.38;5071796;28;49684;-64
2022/06/05 03:03:51;;;;;;;;;13.00;10.75;;;;;-142.59;100.00;56100.38;5072526;27;49824;-65
2022/06/05 03:06:17;;;;;;;;;12.25;11.25;;;;;-142.59;100.00;56100.38;5071796;28;49846;-64
2022/06/05 03:08:42;;;;;;;;;14.50;11.00;;;;;-142.59;100.00;56100.38;5072130;28;50458;-64
2022/06/05 03:11:07;;;;;;;;;15.00;12.50;;;;;-142.59;100.00;56100.38;5072380;28;49732;-63
2022/06/05 03:13:33;;;;;;;;;12.75;12.75;;;;;-142.59;100.00;56100.38;5072333;28;49769;-63
2022/06/05 03:15:58;;;;;;;;;11.75;10.25;;;;;-142.59;100.00;56100.38;5071679;28;49803;-63
2022/06/05 03:18:23;;;;;;;;;14.25;11.00;;;;;-142.59;100.00;56100.38;5071994;28;49736;-64
2022/06/05 03:20:49;;;;;;;;;17.25;15.50;;;;;-142.59;100.00;56100.38;5071958;28;49779;-63
2022/06/05 03:23:14;;;;;;;;;15.00;14.50;;;;;-142.59;100.00;56100.38;5071800;28;49853;-64
2022/06/05 03:25:42;;;;;;;;;17.25;13.00;;;;;-142.59;100.00;56100.38;5071755;28;49747;-63
2022/06/05 03:28:09;;;;;;;;;13.00;13.00;;;;;-142.59;100.00;56100.38;5053715;28;50519;-66
2022/06/05 03:30:39;;;;;;;;;13.25;12.50;;;;;-142.59;100.00;56100.38;5071922;28;49827;-65
2022/06/05 03:33:04;;;;;;;;;12.00;11.00;;;;;-142.59;100.00;56100.38;5071507;27;49904;-65
2022/06/05 03:35:30;;;;;;;;;8.75;8.75;;;;;-142.59;100.00;56100.38;5053340;28;50024;-66
2022/06/05 03:37:55;;;;;;;;;11.75;10.75;;;;;-142.59;100.00;56100.38;5071109;28;54282;-64
2022/06/05 03:40:20;;;;;;;;;14.25;13.75;;;;;-142.59;100.00;56100.38;5072063;28;49629;-65
2022/06/05 03:42:46;;;;;;;;;11.75;11.75;;;;;-142.59;100.00;56100.38;5071854;28;50151;-66
2022/06/05 03:45:14;;;;;;;;;11.50;11.00;;;;;-142.59;100.00;56100.38;5071982;28;49744;-65
2022/06/05 03:47:40;;;;;;;;;16.00;16.00;;;;;-142.59;100.00;56100.38;5071724;28;49803;-65
2022/06/05 03:50:06;;;;;;;;;11.50;11.50;;;;;-142.59;100.00;56100.38;5071162;28;49642;-66
2022/06/05 03:52:32;;;;;;;;;11.75;11.75;;;;;-142.59;100.00;56100.38;5071244;28;49738;-66
2022/06/05 03:54:57;;;;;;;;;13.25;12.50;;;;;-142.59;100.00;56100.38;5072052;28;49581;-66
2022/06/05 03:57:22;;;;;;;;;14.50;13.50;;;;;-142.59;100.00;56100.38;5052722;27;51582;-65
2022/06/05 03:59:48;;;;;;;;;11.50;11.50;;;;;-142.59;100.00;56100.38;5071508;28;49737;-65
2022/06/05 04:02:14;;;;;;;;;9.50;9.50;;;;;-142.59;100.00;56100.38;5071784;28;49868;-65
2022/06/05 04:04:39;;;;;;;;;12.75;12.75;;;;;-142.59;100.00;56100.38;5071435;28;49867;-66
2022/06/05 04:07:04;;;;;;;;;11.75;11.75;;;;;-142.59;100.00;56100.38;5034708;28;54119;-65
2022/06/05 04:09:30;;;;;;;;;17.75;15.00;;;;;-142.59;100.00;56100.38;5048660;28;49719;-67
2022/06/05 04:11:56;;;;;;;;;11.50;11.50;;;;;-142.59;100.00;56100.38;5074688;28;49649;-67
2022/06/05 04:14:22;;;;;;;;;10.75;8.25;;;;;-142.59;100.00;56100.38;5075378;28;49592;-67
2022/06/05 04:16:47;;;;;;;;;13.00;13.00;;;;;-142.59;100.00;56100.38;5074196;28;50378;-67
2022/06/05 04:19:12;;;;;;;;;12.00;11.00;;;;;-142.59;100.00;56100.38;5074715;27;49682;-68
2022/06/05 04:21:41;;;;;;;;;12.75;12.00;;;;;-142.59;100.00;56100.38;5074394;28;49677;-66
2022/06/05 04:24:06;;;;;;;;;9.25;9.25;;;;;-142.59;100.00;56100.38;5073520;28;49828;-66
2022/06/05 04:26:34;;;;;;;;;13.25;12.25;;;;;-142.59;100.00;56100.38;5073950;28;56170;-69
2022/06/05 04:29:00;;;;;;;;;12.25;12.00;;;;;-142.59;100.00;56100.38;5055512;28;49693;-66
2022/06/05 04:31:35;;;;;;;;;12.00;11.00;;;;;-142.59;100.00;56100.38;5074604;28;49862;-69
2022/06/05 04:34:03;;;;;;;;;13.00;12.00;;;;;-142.59;100.00;56100.38;5074897;28;49948;-65
2022/06/05 04:36:29;;;;;;;;;12.25;11.75;;;;;-142.59;100.00;56100.38;5074318;27;49922;-69
2022/06/05 04:38:55;;;;;;;;;14.25;14.25;;;;;-142.59;100.00;56100.38;5074472;28;49797;-68
2022/06/05 04:41:22;;;;;;;;;11.75;11.50;;;;;-142.59;100.00;56100.38;5074486;27;49800;-69
2022/06/05 04:43:49;;;;;;;;;13.25;12.00;;;;;-142.59;100.00;56100.38;5074681;27;49779;-66
2022/06/05 04:46:17;;;;;;;;;15.50;13.00;;;;;-142.59;100.00;56100.38;5074403;28;50443;-68
2022/06/05 04:48:42;;;;;;;;;12.50;11.75;;;;;-142.59;100.00;56100.38;5074263;28;49637;-65
2022/06/05 04:51:09;;;;;;;;;11.50;10.25;;;;;-142.59;100.00;56100.38;5074135;28;49518;-66
2022/06/05 04:53:36;;;;;;;;;13.75;12.50;;;;;-142.59;100.00;56100.38;5074545;28;49810;-67
2022/06/05 04:56:15;;;;;;;;;13.00;12.00;;;;;-142.59;100.00;56100.38;5073479;28;49774;-68
2022/06/05 04:58:41;;;;;;;;;15.00;13.00;;;;;-142.59;100.00;56100.38;5071359;28;49575;-66
2022/06/05 05:01:19;;;;;;;;;14.00;11.00;;;;;-142.59;100.00;56100.38;5074204;28;49815;-67
2022/06/05 05:03:45;;;;;;;;;10.75;10.25;;;;;-142.59;100.00;56100.38;5074642;28;49758;-68
2022/06/05 05:06:10;;;;;;;;;12.25;11.50;;;;;-142.59;100.00;56100.38;5073345;27;50781;-70
2022/06/05 05:08:36;;;;;;;;;15.25;12.00;;;;;-142.59;100.00;56100.38;5073933;28;49706;-66
2022/06/05 05:11:02;;;;;;;;;13.25;12.00;;;;;-142.59;100.00;56100.38;5074219;28;49660;-67
2022/06/05 05:13:27;;;;;;;;;3.50;3.50;;;;;-142.59;100.00;56100.38;5074059;27;49838;-68
2022/06/05 05:15:55;;;;;;;;;14.00;12.75;;;;;-142.59;100.00;56100.38;5073541;28;50410;-67
2022/06/05 05:18:21;;;;;;;;;11.25;11.25;;;;;-142.59;100.00;56100.38;5073279;28;49774;-69
2022/06/05 05:20:46;;;;;;;;;12.25;12.25;;;;;-142.59;100.00;56100.38;5073597;28;49723;-69
2022/06/05 05:23:12;;;;;;;;;15.50;14.00;;;;;-142.59;100.00;56100.38;5074118;28;49910;-68
2022/06/05 05:25:37;;;;;;;;;12.00;12.00;;;;;-142.59;100.00;56100.38;5073557;28;51051;-69
2022/06/05 05:28:03;;;;;;;;;16.25;15.25;;;;;-142.59;100.00;56100.38;5073641;27;49713;-65
2022/06/05 05:30:28;;;;;;;;;17.00;16.25;;;;;-142.59;100.00;56100.38;5073891;28;49730;-68
2022/06/05 05:32:54;;;;;;;;;16.75;16.25;;;;;-142.59;100.00;56100.38;5074086;28;49730;-66
2022/06/05 05:35:20;;;;;;;;;10.25;10.25;;;;;-142.59;100.00;56100.38;5073485;28;50415;-69
2022/06/05 05:37:46;;;;;;;;;12.75;12.75;;;;;-142.59;100.00;56100.38;5073482;28;49895;-67
2022/06/05 05:42:56;;;;;;;;;21.25;18.25;;;;;-142.59;100.00;56100.38;5073565;28;49769;-66
2022/06/05 05:45:21;;;;;;;;;15.25;14.00;;;;;-142.59;100.00;56100.38;5072826;28;49786;-66
2022/06/05 05:47:46;;;;;;;;;22.00;19.00;;;;;-142.59;100.00;56100.38;5071984;28;49925;-66
2022/06/05 05:50:15;;;;;;;;;17.75;14.50;;;;;-142.59;100.00;56100.38;5073222;27;49662;-65
2022/06/05 05:52:41;;;;;;;;;16.00;16.00;;;;;-142.59;100.00;56100.38;5073677;28;49909;-68
2022/06/05 05:55:14;;;;;;;;;15.50;14.50;;;;;-142.59;100.00;56100.38;5072196;28;49699;-66
2022/06/05 05:57:40;;;;;;;;;17.00;16.00;;;;;-142.59;100.00;56100.38;5073120;27;49625;-66
2022/06/05 06:00:09;;;;;;;;;14.75;14.00;;;;;-142.59;100.00;56100.38;5072937;28;49687;-66
2022/06/05 06:02:35;;;;;;;;;16.75;15.50;;;;;-142.59;100.00;56100.38;5072704;28;50051;-66
2022/06/05 06:05:01;;;;;;;;;14.00;14.00;;;;;-142.59;100.00;56100.38;5073259;28;50961;-66
2022/06/05 06:07:26;;;;;;;;;14.75;14.75;;;;;-142.59;100.00;56100.38;5073134;28;49680;-66
2022/06/05 06:09:52;;;;;;;;;13.25;13.25;;;;;-142.59;100.00;56100.38;5072778;27;49773;-65
2022/06/05 06:12:17;;;;;;;;;14.00;14.00;;;;;-142.59;100.00;56100.38;5073199;27;49915;-66
2022/06/05 06:14:42;;;;;;;;;11.50;10.50;;;;;-142.59;100.00;56100.38;5072200;28;58725;-67
2022/06/05 06:17:08;;;;;;;;;12.25;12.25;;;;;-142.59;100.00;56100.38;5073280;28;49672;-68
2022/06/05 06:19:34;;;;;;;;;16.50;13.75;;;;;-142.59;100.00;56100.38;5072785;27;49751;-69
2022/06/05 06:21:59;;;;;;;;;15.00;15.00;;;;;-142.59;100.00;56100.38;5072996;28;49657;-68
2022/06/05 06:24:24;;;;;;;;;13.25;11.25;;;;;-142.59;100.00;56100.38;5071685;28;50769;-66
2022/06/05 06:26:50;;;;;;;;;13.25;12.00;;;;;-142.59;100.00;56100.38;5072475;28;49649;-66
2022/06/05 06:29:15;;;;;;;;;10.75;10.00;;;;;-142.59;100.00;56100.38;5072543;28;49487;-66
2022/06/05 06:31:42;;;;;;;;;14.00;13.25;;;;;-142.59;100.00;56100.38;5073201;28;50475;-66
2022/06/05 06:34:07;;;;;;;;;11.25;10.50;;;;;-142.59;100.00;56100.38;5071937;27;49782;-66
2022/06/05 06:36:33;;;;;;;;;17.00;15.00;;;;;-142.59;100.00;56100.38;5072290;28;50057;-66
2022/06/05 06:38:59;;;;;;;;;12.50;12.25;;;;;-142.59;100.00;56100.38;5072265;28;49992;-68
2022/06/05 06:41:25;;;;;;;;;15.00;15.00;;;;;-142.59;100.00;56100.38;5071907;28;49760;-66
2022/06/05 06:43:51;;;;;;;;;14.50;13.50;;;;;-142.59;100.00;56100.38;5072428;28;50232;-66
2022/06/05 06:46:17;;;;;;;;;14.25;13.50;;;;;-142.59;100.00;56100.38;5071723;27;49861;-68
2022/06/05 06:48:42;;;;;;;;;16.00;14.25;;;;;-142.59;100.00;56100.38;5072745;28;49982;-66
2022/06/05 06:51:08;;;;;;;;;17.75;15.00;;;;;-142.59;100.00;56100.38;5072599;28;49905;-66
2022/06/05 06:53:37;;;;;;;;;16.00;14.25;;;;;-142.59;100.00;56100.38;5071641;28;50684;-67
2022/06/05 06:56:15;;;;;;;;;18.50;17.25;;;;;-142.59;100.00;56100.38;5072038;28;49590;-66
2022/06/05 06:58:42;;;;;;;;;22.50;21.25;;;;;-142.59;100.00;56100.38;5069890;28;49751;-67
2022/06/05 07:01:07;;;;;;;;;19.25;19.25;;;;;-142.59;100.00;56100.38;5072401;28;49847;-67
2022/06/05 07:03:34;;;;;;;;;22.25;20.25;;;;;-142.59;100.00;56100.38;5070231;28;50494;-66
2022/06/05 07:06:02;;;;;;;;;16.50;16.00;;;;;-142.59;100.00;56100.38;5072488;28;49861;-69
2022/06/05 07:08:28;;;;;;;;;19.25;18.50;;;;;-142.59;100.00;56100.38;5071322;28;49844;-66
2022/06/05 07:10:53;;;;;;;;;27.75;24.50;;;;;-142.59;100.00;56100.38;5072531;28;49592;-67
2022/06/05 07:13:18;;;;;;;;;17.75;17.75;;;;;-142.59;100.00;56100.38;5072188;28;50469;-67
2022/06/05 07:15:44;;;;;;;;;18.75;17.75;;;;;-142.59;100.00;56100.38;5072026;28;49696;-66
2022/06/05 07:18:09;;;;;;;;;19.50;16.75;;;;;-142.59;100.00;56100.38;5072204;28;49691;-66
2022/06/05 07:20:40;;;;;;;;;16.00;15.00;;;;;-142.59;100.00;56100.38;5072641;28;49768;-66
2022/06/05 07:23:06;;;;;;;;;19.75;16.75;;;;;-142.59;100.00;56100.38;5071414;28;50638;-65
2022/06/05 07:25:33;;;;;;;;;15.00;13.50;;;;;-142.59;100.00;56100.38;5071486;28;49661;-65
2022/06/05 07:27:59;;;;;;;;;17.00;15.25;;;;;-142.59;100.00;56100.38;5071912;28;50021;-65
2022/06/05 07:30:25;;;;;;;;;16.25;14.75;;;;;-142.59;100.00;56100.38;5072057;28;49701;-66
2022/06/05 07:32:51;;;;;;;;;15.75;14.00;;;;;-142.59;100.00;56100.38;5071228;28;49931;-66
2022/06/05 07:35:17;;;;;;;;;14.25;13.25;;;;;-142.59;100.00;56100.38;5071808;28;49925;-65
2022/06/05 07:37:43;;;;;;;;;12.75;11.50;;;;;-142.59;100.00;56100.38;5072080;28;49744;-66
2022/06/05 07:40:09;;;;;;;;;14.00;12.25;;;;;-142.59;100.00;56100.38;5071711;28;49961;-68
2022/06/05 07:42:36;;;;;;;;;13.25;12.25;;;;;-142.59;100.00;56100.38;5071918;28;51130;-66
2022/06/05 07:45:02;;;;;;;;;14.25;14.00;;;;;-142.59;100.00;56100.38;5070453;28;49617;-70
2022/06/05 07:47:27;;;;;;;;;4.75;4.75;;;;;-142.59;100.00;56100.38;5075477;27;49754;-65
2022/06/05 07:49:53;;;;;;;;;10.25;9.75;;;;;-142.59;100.00;56100.38;5075526;28;49672;-66
2022/06/05 07:55:03;;;;;;;;;7.50;7.50;;;;;-142.59;100.00;56100.38;5075332;27;49650;-66
2022/06/05 07:57:28;;;;;;;;;7.00;6.75;;;;;-142.59;100.00;56100.38;5073023;27;49555;-69
2022/06/05 07:59:53;;;;;;;;;7.00;7.00;;;;;-142.59;100.00;56100.38;5059078;28;49832;-66
2022/06/05 08:02:23;;;;;;;;;12.75;10.00;;;;;-142.59;100.00;56100.38;5074731;28;50665;-68
2022/06/05 08:04:51;;;;;;;;;9.25;7.50;;;;;-142.59;100.00;56100.38;5074669;27;49934;-66
2022/06/05 08:07:20;;;;;;;;;7.75;6.00;;;;;-142.59;100.00;56100.38;5075095;28;49744;-65
2022/06/05 08:09:46;;;;;;;;;7.50;7.50;;;;;-142.59;100.00;56100.38;5073508;28;49697;-66
2022/06/05 08:12:14;;;;;;;;;5.75;5.75;;;;;-142.59;100.00;56100.38;5074195;28;51071;-67
2022/06/05 08:14:42;;;;;;;;;7.00;7.00;;;;;-142.59;100.00;56100.38;5074480;28;49719;-65
2022/06/05 08:17:11;;;;;;;;;9.00;8.00;;;;;-142.59;100.00;56100.38;5075844;27;49810;-75
2022/06/05 08:19:38;;;;;;;;;8.00;8.00;;;;;-142.59;100.00;56100.38;5056526;27;49914;-73
2022/06/05 08:22:05;;;;;;;;;11.75;10.75;;;;;-142.59;100.00;56100.38;5066893;28;49869;-77
2022/06/05 08:24:30;;;;;;;;;8.50;8.50;;;;;-142.59;100.00;56100.38;5052913;28;50083;-78
2022/06/05 08:26:55;;;;;;;;;7.00;7.00;;;;;-142.59;100.00;56100.38;5071819;27;49877;-76
2022/06/05 08:29:21;;;;;;;;;6.75;6.75;;;;;-142.59;100.00;56100.38;5070992;28;49782;-81
2022/06/05 08:31:48;;;;;;;;;6.75;6.75;;;;;-142.59;100.00;56100.38;5047374;28;52032;-77
2022/06/05 08:34:14;;;;;;;;;8.25;6.50;;;;;-142.59;100.00;56100.38;5071141;28;49632;-79
2022/06/05 08:36:41;;;;;;;;;6.50;6.50;;;;;-142.59;100.00;56100.38;5051344;28;49904;-76
2022/06/05 08:42:12;;;;;;;;;7.00;7.00;;;;;-142.59;100.00;56100.38;5070401;28;49770;-78
2022/06/05 08:44:52;;;;;;;;;7.50;7.50;;;;;-142.59;100.00;56100.38;5069492;28;49744;-76
2022/06/05 08:47:39;;;;;;;;;7.00;7.00;;;;;-142.59;100.00;56100.38;5070689;28;49772;-76
2022/06/05 08:50:23;;;;;;;;;6.50;6.25;;;;;-142.59;100.00;56100.38;5070555;28;49786;-70
2022/06/05 08:53:04;;;;;;;;;4.75;4.75;;;;;-142.59;100.00;56100.38;5063106;28;50557;-69
2022/06/05 08:55:42;;;;;;;;;7.50;6.75;;;;;-142.59;100.00;56100.38;5071754;28;49722;-67
2022/06/05 08:58:35;;;;;;;;;6.25;6.25;;;;;-142.59;100.00;56100.38;5069818;28;49864;-71
2022/06/05 09:01:08;;;;;;;;;5.25;5.25;;;;;-142.59;100.00;56100.38;5071308;27;49946;-67
2022/06/05 09:03:42;;;;;;;;;6.75;6.00;;;;;-142.59;100.00;56100.38;5067729;28;49667;-68
2022/06/05 09:06:36;;;;;;;;;6.75;6.75;;;;;-142.59;100.00;56100.38;5069750;27;49861;-70
2022/06/05 09:09:06;;;;;;;;;6.50;6.00;;;;;-142.59;100.00;56100.38;5072395;28;49873;-69
2022/06/05 09:11:47;;;;;;;;;8.25;6.50;;;;;-142.59;100.00;56100.38;5069637;28;49728;-68
2022/06/05 09:14:51;;;;;;;;;8.00;8.00;;;;;-142.59;100.00;56100.38;5064269;28;50540;-67
2022/06/05 09:17:19;;;;;;;;;11.25;7.00;;;;;-142.59;100.00;56100.38;5055412;28;49739;-68
2022/06/05 09:19:45;;;;;;;;;8.00;6.75;;;;;-142.59;100.00;56100.38;5055780;28;50016;-66
2022/06/05 09:22:31;;;;;;;;;7.50;7.50;;;;;-142.59;100.00;56100.38;5073389;27;49911;-68
2022/06/05 09:25:08;;;;;;;;;5.50;5.00;;;;;-142.59;100.00;56100.38;5072595;27;49910;-67
2022/06/05 09:27:54;;;;;;;;;7.00;7.00;;;;;-142.59;100.00;56100.38;5072810;28;49719;-65
2022/06/05 09:30:32;;;;;;;;;5.00;4.75;;;;;-142.59;100.00;56100.38;5071398;28;49600;-65
2022/06/05 09:33:10;;;;;;;;;6.75;6.75;;;;;-142.59;100.00;56100.38;5053887;28;49792;-65
2022/06/05 09:35:45;;;;;;;;;4.25;4.25;;;;;-142.59;100.00;56100.38;5063554;27;49783;-70
2022/06/05 09:38:17;;;;;;;;;4.75;3.75;;;;;-142.59;100.00;56100.38;5083760;27;49691;-64
2022/06/05 09:41:13;;;;;;;;;7.00;7.00;;;;;-142.59;100.00;56100.38;5092608;27;49853;-67
2022/06/05 09:44:07;;;;;;;;;7.50;5.50;;;;;-142.59;100.00;56100.38;5085553;27;49749;-64
2022/06/05 09:46:45;;;;;;;;;7.75;7.00;;;;;-142.59;100.00;56100.38;5073612;28;49949;-64
2022/06/05 09:49:25;;;;;;;;;10.00;10.00;;;;;-142.59;100.00;56100.38;5072357;28;49732;-65
2022/06/05 09:51:50;;;;;;;;;6.50;6.50;;;;;-142.59;100.00;56100.38;5072591;27;49665;-67
2022/06/05 09:54:29;;;;;;;;;8.25;8.25;;;;;-142.59;100.00;56100.38;5054919;28;50006;-64
2022/06/05 09:59:54;;;;;;;;;9.75;9.75;;;;;-142.59;100.00;56100.38;5062976;28;49878;-62
2022/06/05 10:02:22;;;;;;;;;9.50;9.50;;;;;-142.59;100.00;56100.38;5073816;27;49908;-62
2022/06/05 10:04:48;;;;;;;;;10.25;9.00;;;;;-142.59;100.00;56100.38;5070349;28;49889;-67
2022/06/05 10:07:27;;;;;;;;;10.50;10.50;;;;;-142.59;100.00;56100.38;5068722;28;50544;-64
2022/06/05 10:09:53;;;;;;;;;11.75;11.00;;;;;-142.59;100.00;56100.38;5071224;28;49752;-67
2022/06/05 10:12:42;;;;;;;;;8.50;8.50;;;;;-142.59;100.00;56100.38;5069096;28;49822;-65
2022/06/05 10:15:31;;;;;;;;;15.50;13.75;;;;;-142.59;100.00;56100.38;5052092;28;50008;-66
2022/06/05 10:18:01;;;;;;;;;12.00;12.00;;;;;-142.59;100.00;56100.38;5072959;28;51218;-65
2022/06/05 10:20:32;;;;;;;;;15.50;14.50;;;;;-142.59;100.00;56100.38;5072928;27;49702;-63
2022/06/05 10:23:13;;;;;;;;;16.50;15.00;;;;;-142.59;100.00;56100.38;5072914;28;49926;-63
2022/06/05 10:26:17;;;;;;;;;16.75;14.75;;;;;-142.59;100.00;56100.38;5073522;28;49791;-67
2022/06/05 10:28:44;;;;;;;;;14.50;12.00;;;;;-142.59;100.00;56100.38;5073014;27;50277;-71
2022/06/05 10:31:22;;;;;;;;;11.75;11.00;;;;;-142.59;100.00;56100.38;5071547;27;49803;-63
2022/06/05 10:33:57;;;;;;;;;14.00;13.25;;;;;-142.59;100.00;56100.38;5052858;28;49797;-69
2022/06/05 10:36:27;;;;;;;;;15.50;15.50;;;;;-142.59;100.00;56100.38;5052790;28;49619;-63
2022/06/05 10:39:10;;;;;;;;;13.50;13.50;;;;;-142.59;100.00;56100.38;5052265;28;49803;-64
2022/06/05 10:41:53;;;;;;;;;14.00;14.00;;;;;-142.59;100.00;56100.38;5052634;28;49794;-63
2022/06/05 10:44:19;;;;;;;;;12.00;12.00;;;;;-142.59;100.00;56100.38;5052684;28;49605;-63
2022/06/05 10:47:21;;;;;;;;;13.75;13.75;;;;;-142.59;100.00;56100.38;5052765;28;49907;-63
2022/06/05 10:49:49;;;;;;;;;16.50;15.00;;;;;-142.59;100.00;56100.38;5052463;28;49804;-62
2022/06/05 10:52:30;;;;;;;;;16.75;13.00;;;;;-142.59;100.00;56100.38;5052591;28;49621;-66
2022/06/05 10:54:59;;;;;;;;;12.75;11.25;;;;;-142.59;100.00;56100.38;5069581;28;50101;-63
2022/06/05 10:57:32;;;;;;;;;14.00;13.75;;;;;-142.59;100.00;56100.38;5073085;28;49521;-63
2022/06/05 11:00:15;;;;;;;;;14.75;14.75;;;;;-142.59;100.00;56100.38;5075087;27;50691;-63
2022/06/05 11:02:43;;;;;;;;;13.25;12.00;;;;;-142.59;100.00;56100.38;5072710;28;49674;-65
2022/06/05 11:05:15;;;;;;;;;13.50;12.75;;;;;-142.59;100.00;56100.38;5072723;28;49692;-65
2022/06/05 11:08:07;;;;;;;;;12.25;12.25;;;;;-142.59;100.00;56100.38;5072082;28;49842;-60
2022/06/05 11:13:50;;;;;;;;;13.25;13.00;;;;;-142.59;100.00;56100.38;5072374;28;49737;-62
2022/06/05 11:16:32;;;;;;;;;12.75;12.00;;;;;-142.59;100.00;56100.38;5052206;28;49808;-62
2022/06/05 11:19:08;;;;;;;;;15.00;14.00;;;;;-142.59;100.00;56100.38;5053006;28;49709;-66
2022/06/05 11:21:34;;;;;;;;;17.25;17.25;;;;;-142.59;100.00;56100.38;5064060;28;50539;-66
2022/06/05 11:24:01;;;;;;;;;20.00;17.50;;;;;-142.59;100.00;56100.38;5057666;28;49879;-66
2022/06/05 11:26:43;;;;;;;;;18.00;15.75;;;;;-142.59;100.00;56100.38;5061892;27;49814;-66
2022/06/05 11:29:27;;;;;;;;;20.25;16.25;;;;;-142.59;100.00;56100.38;5056258;28;49652;-67
2022/06/05 11:32:25;;;;;;;;;17.00;17.00;;;;;-142.59;100.00;56100.38;5056221;28;49863;-67
2022/06/05 11:34:56;;;;;;;;;15.50;14.25;;;;;-142.59;100.00;56100.38;5068919;28;49896;-65